createdAt,value
2018-12-21T10:39:13.157Z,8.38
2018-12-21T10:41:40.713Z,8.33
2018-12-21T10:44:08.227Z,9.28
2018-12-21T10:46:35.744Z,7.97
2018-12-21T10:49:03.280Z,6.60
2018-12-21T10:51:30.797Z,9.20
2018-12-21T10:53:58.321Z,13.18
2018-12-21T10:56:25.829Z,9.48
2018-12-21T10:58:53.337Z,7.25
2018-12-21T11:01:20.971Z,6.65
2018-12-21T11:03:48.493Z,7.20
2018-12-21T11:06:15.996Z,7.42
2018-12-21T11:08:43.513Z,8.93
2018-12-21T11:11:11.065Z,11.18
2018-12-21T11:13:38.575Z,12.30
2018-12-21T11:16:07.047Z,16.23
2018-12-21T11:18:34.974Z,14.20
2018-12-21T11:21:02.516Z,11.55
2018-12-21T11:23:30.144Z,7.00
2018-12-21T11:25:58.137Z,8.83
2018-12-21T11:28:25.789Z,6.72
2018-12-21T11:30:53.960Z,5.90
2018-12-21T11:33:21.475Z,5.62
2018-12-21T11:35:49.580Z,6.12
2018-12-21T11:38:17.117Z,7.08
2018-12-21T11:40:45.216Z,7.83
2018-12-21T11:43:12.726Z,7.65
2018-12-21T11:45:40.253Z,7.55
2018-12-21T11:48:07.887Z,7.35
2018-12-21T11:50:35.397Z,8.05
2018-12-21T11:53:02.938Z,7.65
2018-12-21T11:55:30.444Z,5.85
2018-12-21T11:57:57.961Z,6.05
2018-12-21T12:00:25.481Z,6.37
2018-12-21T12:02:53.549Z,6.67
2018-12-21T12:05:21.064Z,7.72
2018-12-21T12:07:49.098Z,7.17
2018-12-21T12:10:16.625Z,6.28
2018-12-21T12:12:45.090Z,5.15
2018-12-21T12:15:14.548Z,4.92
2018-12-21T12:17:44.596Z,5.03
2018-12-21T12:20:12.102Z,4.17
2018-12-21T12:22:39.854Z,4.53
2018-12-21T12:25:07.508Z,4.90
2018-12-21T12:27:35.163Z,5.10
2018-12-21T12:30:03.069Z,5.28
2018-12-21T12:32:30.594Z,6.28
2018-12-21T12:34:58.127Z,7.47
2018-12-21T12:37:25.742Z,7.00
2018-12-21T12:39:53.245Z,9.18
2018-12-21T12:42:20.757Z,9.25
2018-12-21T12:44:48.948Z,10.85
2018-12-21T12:47:16.493Z,7.70
2018-12-21T12:49:44.382Z,7.15
2018-12-21T12:52:11.905Z,7.83
2018-12-21T12:54:39.961Z,15.18
2018-12-21T12:57:07.481Z,7.80
2018-12-21T12:59:35.003Z,9.63
2018-12-21T13:02:02.508Z,9.43
2018-12-21T13:04:30.027Z,7.30
2018-12-21T13:07:00.082Z,6.05
2018-12-21T13:09:27.594Z,6.10
2018-12-21T13:11:55.103Z,6.53
2018-12-21T13:14:22.617Z,5.95
2018-12-21T13:16:50.124Z,6.28
2018-12-21T13:19:17.741Z,6.65
2018-12-21T13:21:45.285Z,6.50
2018-12-21T13:24:13.241Z,6.72
2018-12-21T13:26:40.752Z,7.30
2018-12-21T13:29:08.616Z,7.35
2018-12-21T13:31:36.121Z,5.97
2018-12-21T13:34:03.868Z,5.50
2018-12-21T13:36:31.384Z,5.62
2018-12-21T13:38:59.425Z,5.50
2018-12-21T13:41:26.925Z,5.20
2018-12-21T13:43:54.431Z,5.00
2018-12-21T13:46:21.936Z,5.50
2018-12-21T13:48:49.440Z,5.65
2018-12-21T13:51:16.946Z,4.70
2018-12-21T14:01:20.807Z,5.40
2018-12-21T14:03:48.630Z,15.70
2018-12-21T14:06:16.145Z,23.27
2018-12-21T14:08:43.992Z,9.58
2018-12-21T14:11:11.508Z,5.08
2018-12-21T14:13:39.147Z,5.95
2018-12-21T14:16:07.634Z,8.85
2018-12-21T14:18:35.149Z,8.28
2018-12-21T14:21:08.573Z,5.62
2018-12-21T14:23:36.096Z,6.50
2018-12-21T14:26:03.693Z,5.28
2018-12-21T14:28:31.209Z,4.40
2018-12-21T14:30:58.724Z,6.95
2018-12-21T14:33:26.237Z,8.18
2018-12-21T14:35:53.761Z,7.15
2018-12-21T14:38:21.284Z,5.03
2018-12-21T14:40:48.788Z,5.53
2018-12-21T14:43:16.296Z,6.30
2018-12-21T14:45:43.896Z,6.67
2018-12-21T14:48:12.942Z,7.22
2018-12-21T14:50:40.456Z,6.10
2018-12-21T14:53:08.431Z,4.28
2018-12-21T14:55:37.631Z,3.75
2018-12-21T14:58:05.378Z,4.58
2018-12-21T15:00:33.306Z,5.20
2018-12-21T15:03:00.822Z,6.37
2018-12-21T15:05:28.618Z,6.87
2018-12-21T15:07:56.119Z,6.72
2018-12-21T15:10:23.628Z,4.10
2018-12-21T15:12:52.556Z,3.40
2018-12-21T15:15:20.060Z,3.00
2018-12-21T15:17:48.031Z,3.17
2018-12-21T15:20:15.542Z,3.50
2018-12-21T15:22:43.291Z,4.85
2018-12-21T15:25:10.889Z,4.87
2018-12-21T15:27:38.634Z,4.50
2018-12-21T15:30:08.216Z,4.95
2018-12-21T15:32:35.756Z,7.33
2018-12-21T15:35:04.405Z,7.15
2018-12-21T15:37:32.840Z,6.55
2018-12-21T15:40:00.341Z,4.92
2018-12-21T15:42:28.172Z,6.10
2018-12-21T15:44:55.677Z,6.42
2018-12-21T15:47:23.185Z,6.37
2018-12-21T15:49:51.899Z,6.60
2018-12-21T15:52:19.972Z,7.10
2018-12-21T15:54:47.908Z,8.10
2018-12-21T15:57:15.422Z,10.65
2018-12-21T15:59:42.928Z,9.38
2018-12-21T16:02:10.487Z,11.33
2018-12-21T16:04:38.023Z,12.90
2018-12-21T16:07:05.542Z,15.40
2018-12-21T16:09:33.056Z,16.65
2018-12-21T16:12:00.572Z,17.23
2018-12-21T16:14:34.228Z,16.82
2018-12-21T16:16:57.622Z,18.92
2018-12-21T16:19:25.149Z,19.42
2018-12-21T16:21:52.657Z,18.20
2018-12-21T16:24:20.163Z,16.52
2018-12-21T16:26:47.688Z,14.85
2018-12-21T16:29:15.220Z,17.48
2018-12-21T16:31:42.748Z,13.90
2018-12-21T16:34:11.175Z,14.45
2018-12-21T16:36:38.683Z,16.10
2018-12-21T16:39:06.860Z,17.57
2018-12-21T16:41:34.373Z,19.32
2018-12-21T16:44:02.152Z,21.42
2018-12-21T16:46:29.660Z,24.12
2018-12-21T16:48:58.067Z,23.87
2018-12-21T16:51:25.908Z,23.02
2018-12-21T16:53:53.428Z,20.60
2018-12-21T16:56:21.352Z,18.75
2018-12-21T16:58:48.946Z,19.60
2018-12-21T17:01:16.969Z,18.17
2018-12-21T17:03:44.493Z,14.87
2018-12-21T17:06:12.172Z,14.20
2018-12-21T17:08:39.681Z,15.65
2018-12-21T17:11:07.198Z,16.23
2018-12-21T17:13:34.712Z,15.43
2018-12-21T17:16:03.402Z,15.43
2018-12-21T17:18:31.347Z,13.60
2018-12-21T17:20:58.888Z,12.18
2018-12-21T17:23:26.736Z,13.78
2018-12-21T17:25:54.304Z,14.25
2018-12-21T17:28:22.147Z,13.95
2018-12-21T17:30:49.656Z,13.20
2018-12-21T17:33:17.433Z,13.75
2018-12-21T17:35:44.973Z,15.65
2018-12-21T17:38:12.716Z,14.00
2018-12-21T17:40:40.232Z,16.52
2018-12-21T17:43:07.744Z,15.28
2018-12-21T17:45:35.258Z,15.65
2018-12-21T17:48:02.884Z,17.12
2018-12-21T17:50:30.415Z,18.73
2018-12-21T17:52:57.928Z,18.27
2018-12-21T17:55:25.461Z,19.35
2018-12-21T17:57:53.007Z,18.10
2018-12-21T18:00:20.516Z,19.73
2018-12-21T18:02:48.048Z,18.52
2018-12-21T18:05:16.254Z,19.45
2018-12-21T18:07:43.771Z,19.23
2018-12-21T18:10:12.527Z,20.72
2018-12-21T18:12:40.131Z,16.97
2018-12-21T18:15:08.934Z,18.92
2018-12-21T18:17:36.871Z,20.10
2018-12-21T18:20:07.769Z,19.85
2018-12-21T18:22:35.279Z,21.82
2018-12-21T18:25:05.968Z,22.67
2018-12-21T18:27:33.487Z,21.82
2018-12-21T18:30:01.335Z,24.85
2018-12-21T18:32:28.948Z,25.62
2018-12-21T18:34:58.883Z,25.35
2018-12-21T18:37:27.279Z,23.40
2018-12-21T18:39:54.804Z,25.43
2018-12-21T18:42:22.336Z,26.30
2018-12-21T18:44:49.888Z,24.23
2018-12-21T18:47:17.430Z,24.90
2018-12-21T18:49:44.982Z,25.62
2018-12-21T18:52:12.489Z,24.18
2018-12-21T18:54:40.070Z,24.52
2018-12-21T18:57:07.588Z,26.02
2018-12-21T18:59:35.104Z,20.60
2018-12-21T19:02:02.651Z,19.60
2018-12-21T19:04:30.166Z,21.45
2018-12-21T19:06:58.750Z,19.92
2018-12-21T19:09:26.624Z,19.45
2018-12-21T19:11:54.133Z,20.00
2018-12-21T19:14:22.071Z,20.62
2018-12-21T19:16:49.601Z,20.82
2018-12-21T19:19:17.647Z,21.12
2018-12-21T19:21:47.206Z,21.55
2018-12-21T19:24:14.737Z,22.73
2018-12-21T19:26:42.450Z,19.65
2018-12-21T19:29:09.969Z,21.57
2018-12-21T19:31:37.525Z,19.73
2018-12-21T19:34:05.048Z,20.15
2018-12-21T19:36:32.566Z,19.80
2018-12-21T19:39:00.073Z,19.07
2018-12-21T19:41:27.582Z,20.35
2018-12-21T19:43:55.098Z,19.85
2018-12-21T19:46:22.627Z,20.25
2018-12-21T19:48:50.142Z,21.68
2018-12-21T19:51:17.668Z,21.87
2018-12-21T19:53:45.870Z,19.00
2018-12-21T19:56:15.167Z,18.35
2018-12-21T19:58:42.684Z,17.62
2018-12-21T20:01:10.210Z,16.30
2018-12-21T20:03:37.727Z,17.00
2018-12-21T20:06:05.246Z,17.02
2018-12-21T20:08:33.026Z,15.53
2018-12-21T20:11:00.749Z,15.60
2018-12-21T20:13:28.256Z,14.98
2018-12-21T20:15:56.319Z,13.78
2018-12-21T20:18:23.832Z,14.47
2018-12-21T20:20:51.872Z,15.28
2018-12-21T20:23:19.412Z,15.05
2018-12-21T20:25:46.924Z,14.33
2018-12-21T20:28:14.582Z,14.33
2018-12-21T20:30:42.116Z,15.18
2018-12-21T20:33:09.635Z,14.78
2018-12-21T20:35:37.548Z,12.85
2018-12-21T20:38:05.555Z,12.55
2018-12-21T20:40:33.065Z,12.18
2018-12-21T20:43:01.021Z,12.53
2018-12-21T20:45:28.551Z,14.95
2018-12-21T20:47:56.576Z,15.88
2018-12-21T20:50:24.088Z,15.20
2018-12-21T20:52:51.612Z,14.45
2018-12-21T20:55:19.125Z,12.23
2018-12-21T20:57:48.083Z,14.18
2018-12-21T21:00:17.515Z,11.88
2018-12-21T21:02:45.660Z,10.58
2018-12-21T21:05:13.175Z,10.82
2018-12-21T21:07:41.589Z,11.90
2018-12-21T21:10:11.180Z,10.63
2018-12-21T21:12:42.002Z,10.80
2018-12-21T21:15:11.688Z,11.93
2018-12-21T21:17:39.201Z,11.10
2018-12-21T21:20:12.432Z,9.78
2018-12-21T21:22:40.385Z,10.23
2018-12-21T21:25:07.897Z,10.30
2018-12-21T21:27:35.979Z,10.30
2018-12-21T21:30:10.646Z,9.50
2018-12-21T21:32:38.181Z,8.93
2018-12-21T21:35:07.249Z,7.95
2018-12-21T21:37:35.179Z,9.33
2018-12-21T21:40:11.608Z,7.97
2018-12-21T21:42:39.153Z,7.85
2018-12-21T21:45:08.844Z,7.97
2018-12-21T21:47:36.352Z,7.80
2018-12-21T21:50:07.780Z,13.00
2018-12-21T21:52:35.904Z,10.55
2018-12-21T21:55:03.514Z,10.35
2018-12-21T21:57:38.988Z,9.73
2018-12-21T22:00:01.246Z,9.28
2018-12-21T22:02:28.762Z,9.43
2018-12-21T22:04:56.280Z,8.55
2018-12-21T22:07:23.995Z,8.45
2018-12-21T22:09:51.511Z,8.63
2018-12-21T22:12:19.038Z,10.85
2018-12-21T22:14:46.548Z,12.05
2018-12-21T22:17:14.384Z,12.85
2018-12-21T22:19:42.008Z,14.90
2018-12-21T22:22:10.482Z,9.90
2018-12-21T22:24:38.294Z,8.83
2018-12-21T22:27:06.305Z,8.23
2018-12-21T22:29:35.680Z,8.88
2018-12-21T22:32:03.490Z,9.95
2018-12-21T22:34:32.379Z,8.80
2018-12-21T22:37:00.801Z,9.08
2018-12-21T22:39:28.313Z,7.72
2018-12-21T22:41:56.272Z,8.33
2018-12-21T22:44:23.789Z,10.43
2018-12-21T22:46:51.413Z,8.48
2018-12-21T22:49:18.938Z,9.80
2018-12-21T22:51:46.607Z,9.63
2018-12-21T22:54:14.910Z,9.53
2018-12-21T22:56:43.450Z,9.18
2018-12-21T22:59:11.000Z,7.62
2018-12-21T23:01:38.781Z,8.98
2018-12-21T23:04:06.293Z,8.50
2018-12-21T23:06:33.853Z,8.33
2018-12-21T23:09:01.434Z,7.35
2018-12-21T23:11:29.676Z,7.87
2018-12-21T23:13:57.183Z,7.50
2018-12-21T23:16:25.022Z,7.20
2018-12-21T23:18:52.546Z,6.80
2018-12-21T23:21:20.601Z,5.08
2018-12-21T23:23:48.112Z,3.83
2018-12-21T23:26:16.291Z,3.30
2018-12-21T23:28:44.267Z,3.33
2018-12-21T23:31:11.777Z,2.60
2018-12-21T23:33:39.837Z,2.40
2018-12-21T23:36:07.337Z,2.25
2018-12-21T23:38:35.216Z,2.47
2018-12-21T23:41:02.762Z,2.20
2018-12-21T23:43:30.641Z,2.90
2018-12-21T23:45:58.151Z,3.37
2018-12-21T23:48:26.197Z,2.87
2018-12-21T23:50:53.733Z,2.98
2018-12-21T23:53:21.863Z,2.35
2018-12-21T23:55:49.375Z,2.25
2018-12-21T23:58:17.024Z,2.02
